EDT,Max TemperatureF,Mean TemperatureF,Min TemperatureF,Max Dew PointF,MeanDew PointF,Min DewpointF,Max Humidity, Mean Humidity, Min Humidity, Max Sea Level PressureIn, Mean Sea Level PressureIn, Min Sea Level PressureIn, Max VisibilityMiles, Mean VisibilityMiles, Min VisibilityMiles, Max Wind SpeedMPH, Mean Wind SpeedMPH, Max Gust SpeedMPH,PrecipitationIn, CloudCover, Events, WindDirDegrees
2013-10-1,73,60,47,61,56,46,96,82,64,29.94,29.91,29.87,10,9,1,18,5,26,0.00,2,,207
2013-10-2,75,62,48,61,46,31,95,65,20,30.10,30.04,29.90,10,9,0,10,4,,0.00,0,Fog,269
2013-10-3,80,62,43,67,55,42,95,84,52,30.07,29.98,29.89,10,8,0,13,1,22,1.17,3,Fog-Rain,189
2013-10-4,73,66,60,67,64,59,96,91,78,30.06,29.98,29.87,10,7,0,13,3,18,0.76,8,Fog-Rain,90
2013-10-5,67,62,58,66,61,57,96,94,90,30.06,29.98,29.82,10,6,1,13,6,,0.84,8,Rain,65
2013-10-6,69,60,51,66,60,49,95,91,85,29.81,29.72,29.66,10,8,2,14,5,18,0.09,6,Rain,196
2013-10-7,61,54,47,50,45,39,93,78,46,30.07,29.80,29.65,10,10,5,16,6,24,0.03,5,Rain,240
2013-10-8,69,54,38,49,43,37,96,70,38,30.25,30.20,30.08,10,8,0,10,3,17,0.00,1,Fog,162
2013-10-9,70,56,41,50,44,38,95,72,31,30.31,30.25,30.21,10,9,0,8,2,,0.00,0,Fog,148
2013-10-10,70,54,37,51,43,37,96,77,32,30.23,30.19,30.13,10,7,0,8,1,,0.00,0,Fog,128
2013-10-11,71,55,39,50,43,38,96,75,31,30.17,30.12,30.07,10,6,0,7,1,,0.00,2,Fog,96
2013-10-12,79,60,41,60,48,40,96,74,33,30.09,30.05,29.98,10,7,0,12,2,22,0.00,1,Fog-Rain,183
2013-10-13,63,53,43,60,45,40,93,73,45,30.38,30.26,30.07,10,10,7,10,5,17,0.00,3,,269
2013-10-14,60,48,37,44,38,33,96,74,36,30.44,30.37,30.28,10,8,0,9,1,,0.00,1,Fog,58
2013-10-15,65,50,35,58,46,34,97,88,65,30.27,30.01,29.77,10,6,1,13,3,21,0.28,5,Rain,142
2013-10-16,59,53,47,58,49,45,95,89,79,29.87,29.79,29.75,10,8,2,13,6,21,0.02,7,Rain,215
2013-10-17,50,44,39,47,45,38,96,91,79,29.88,29.82,29.73,10,9,3,7,1,,0.41,7,Rain,318
2013-10-18,60,49,38,45,40,37,95,77,47,29.86,29.82,29.78,10,10,7,17,6,25,0.00,3,,217
2013-10-19,55,46,37,42,38,28,93,76,38,29.85,29.77,29.71,10,10,2,21,6,28,0.02,6,Rain,239
2013-10-20,54,46,37,46,38,32,95,76,45,29.86,29.80,29.72,10,9,4,12,3,18,0.07,6,Rain,196
2013-10-21,51,44,38,48,39,24,90,73,56,29.83,29.77,29.72,10,10,10,17,9,24,0.00,8,,234
2013-10-22,49,41,33,33,29,23,87,65,46,29.87,29.83,29.81,10,10,10,17,8,23,0.00,5,,258
2013-10-23,47,40,32,34,30,22,96,78,40,29.90,29.86,29.83,10,10,10,14,3,20,0.00,4,Rain,275
2013-10-24,47,38,30,32,30,27,94,76,47,30.15,30.00,29.89,10,10,10,16,7,23,0.00,3,,261
2013-10-25,46,38,30,33,28,23,96,69,41,30.28,30.17,29.94,10,10,10,15,6,22,0.00,4,,233
2013-10-26,49,42,36,40,35,28,84,71,51,29.98,29.81,29.70,10,10,5,22,12,34,0.11,6,Rain,246
2013-10-27,51,42,32,33,31,28,86,67,42,30.01,29.97,29.91,10,10,10,18,6,23,0.00,5,,228
2013-10-28,43,38,33,35,31,26,92,70,54,30.43,30.26,30.00,10,10,10,13,4,18,0.00,7,,42
2013-10-29,40,34,29,35,29,24,96,79,65,30.46,30.38,30.24,10,10,2,7,3,,0.00,7,Rain,46
2013-10-30,58,43,28,47,38,28,99,82,60,30.22,30.10,29.89,10,6,0,7,1,,0.00,3,Fog-Rain,120
2013-10-31,60,56,53,59,56,47,97,94,78,29.88,29.48,29.04,10,5,1,13,4,18,0.76,8,Rain,162